Thunder radar more information blitzortung!


Radar de pluja more information rain snow radar


Visita la nostra xarxa de llocs de meteo:

Template documentation
and downloads

And another site



Wind From: 11-12-2017 11:00 Until: 14:59 warning for: Wind Level: Yellow info button

Pagina Historial Weather Underground text

Diari Resum January 26, 2016 Unitats:  Mètric    Imperial   Tant
« Previous Dia
SegĂźent Dia »
Diari Setmana Mensual Anual Personalitzada
  Maxima: Minima: Media:
Temperatura: 15.8 °C 0.0 °C 12.5 °C
Punt de rosada: 10.3 °C -3.4 °C 8.2 °C
Humitat: 80 % 69 % 75 %
Wind Speed: 11.1 km/h 0.0 km/h 4.1 km/h
RĂ fegues de vent: 11.1 km/h - -
Vent:- - SE
Pression baro: 1034.8 hPa 1030.7 hPa -
Precipitacions: 0.0 mm    
Historical Graphs
 
 
Dades de taula per January 26, 2016
Temps Temperatura Punt de rosada Pression baro Vent Wind Speed RĂ fegues de vent Humitat Rainfall Rate (Hourly)
11:10 11.6 °C 8.1 °C 1034.8 hPa Calm   1.6 km/h 79 % 0.0 mm
11:15 11.8 °C 8.3 °C 1034.8 hPa SE 1.9 km/h 2.6 km/h 79 % 0.0 mm
11:20 11.9 °C 8.4 °C 1034.8 hPa NNE 3.5 km/h 3.5 km/h 79 % 0.0 mm
11:25 11.7 °C 8.2 °C 1034.8 hPa ENE 7.4 km/h 7.4 km/h 79 % 0.0 mm
11:30 11.5 °C 8.0 °C 1034.8 hPa NE 5.6 km/h 5.6 km/h 79 % 0.0 mm
11:35 11.5 °C 8.0 °C 1033.7 hPa NE 7.4 km/h 7.4 km/h 79 % 0.0 mm
11:40 11.3 °C 7.8 °C 1033.7 hPa NNE 5.6 km/h 5.6 km/h 79 % 0.0 mm
11:45 11.3 °C 7.8 °C 1033.7 hPa NE 7.4 km/h 7.4 km/h 79 % 0.0 mm
11:50 11.4 °C 7.7 °C 1033.7 hPa NNE 5.6 km/h 5.6 km/h 78 % 0.0 mm
11:58 11.5 °C 7.8 °C 1033.7 hPa NE 5.6 km/h 5.6 km/h 78 % 0.0 mm
12:03 11.7 °C 8.0 °C 1033.7 hPa ENE 7.4 km/h 7.4 km/h 78 % 0.0 mm
12:13 0.0 °C -3.4 °C 1032.7 hPa ENE 1.9 km/h 2.6 km/h 78 % 0.0 mm
12:18 12.0 °C 8.3 °C 1032.7 hPa NE 3.9 km/h 3.9 km/h 78 % 0.0 mm
12:23 11.9 °C 8.2 °C 1032.7 hPa ENE 9.3 km/h 9.3 km/h 78 % 0.0 mm
12:28 12.0 °C 8.3 °C 1032.7 hPa NE 4.7 km/h 4.7 km/h 78 % 0.0 mm
12:33 12.0 °C 8.3 °C 1032.7 hPa East 9.3 km/h 9.3 km/h 78 % 0.0 mm
12:38 12.0 °C 8.1 °C 1033.7 hPa NE 7.4 km/h 7.4 km/h 77 % 0.0 mm
12:43 12.1 °C 8.2 °C 1033.7 hPa NNE 5.6 km/h 5.6 km/h 77 % 0.0 mm
12:48 12.2 °C 8.3 °C 1033.7 hPa ENE 3.7 km/h 3.7 km/h 77 % 0.0 mm
12:53 12.5 °C 8.6 °C 1033.7 hPa East 5.6 km/h 5.8 km/h 77 % 0.0 mm
12:58 12.8 °C 8.9 °C 1033.7 hPa NNE 5.0 km/h 5.0 km/h 77 % 0.0 mm
13:03 13.2 °C 9.3 °C 1033.7 hPa NNE 3.7 km/h 3.7 km/h 77 % 0.0 mm
13:08 13.1 °C 8.9 °C 1032.7 hPa NE 6.1 km/h 6.1 km/h 76 % 0.0 mm
13:13 13.0 °C 8.9 °C 1032.7 hPa NNW 3.7 km/h 3.7 km/h 76 % 0.0 mm
13:18 13.2 °C 9.1 °C 1032.7 hPa North 3.7 km/h 3.7 km/h 76 % 0.0 mm
13:23 13.4 °C 9.1 °C 1032.1 hPa ENE 3.9 km/h 3.9 km/h 75 % 0.0 mm
13:28 13.5 °C 9.2 °C 1032.1 hPa NE 5.6 km/h 5.6 km/h 75 % 0.0 mm
13:33 13.7 °C 9.3 °C 1032.1 hPa NNE 7.4 km/h 7.4 km/h 75 % 0.0 mm
13:43 14.1 °C 9.6 °C 1032.7 hPa NNE 7.4 km/h 7.4 km/h 74 % 0.0 mm
13:48 14.2 °C 9.6 °C 1032.7 hPa ENE 3.9 km/h 3.9 km/h 74 % 0.0 mm
13:53 14.2 °C 9.6 °C 1030.7 hPa NE 3.7 km/h 3.7 km/h 74 % 0.0 mm
13:58 14.2 °C 9.6 °C 1030.7 hPa NNE 5.6 km/h 5.6 km/h 74 % 0.0 mm
14:03 14.2 °C 9.6 °C 1030.7 hPa NNE 9.3 km/h 9.3 km/h 74 % 0.0 mm
14:08 14.3 °C 9.5 °C 1032.1 hPa NNE 7.4 km/h 7.4 km/h 73 % 0.0 mm
14:18 14.3 °C 9.5 °C 1032.1 hPa ENE 7.4 km/h 7.4 km/h 73 % 0.0 mm
14:23 14.5 °C 9.7 °C 1032.1 hPa NE 5.8 km/h 5.8 km/h 73 % 0.0 mm
14:33 14.4 °C 9.4 °C 1032.1 hPa ENE 5.3 km/h 5.3 km/h 72 % 0.0 mm
14:38 14.6 °C 9.6 °C 1032.1 hPa NNE 5.8 km/h 5.8 km/h 72 % 0.0 mm
14:48 14.7 °C 9.7 °C 1032.1 hPa NE 9.3 km/h 9.3 km/h 72 % 0.0 mm
14:53 14.8 °C 9.6 °C 1030.7 hPa NW 5.6 km/h 5.6 km/h 71 % 0.0 mm
14:58 14.8 °C 9.6 °C 1030.7 hPa NE 5.6 km/h 5.6 km/h 71 % 0.0 mm
15:03 14.9 °C 9.7 °C 1030.7 hPa NW 5.8 km/h 5.8 km/h 71 % 0.0 mm
15:08 15.0 °C 9.8 °C 1032.1 hPa NE 3.7 km/h 3.7 km/h 71 % 0.0 mm
15:13 15.0 °C 9.8 °C 1032.1 hPa NNE 7.4 km/h 7.4 km/h 71 % 0.0 mm
15:18 15.0 °C 9.8 °C 1032.1 hPa NNE 3.7 km/h 3.7 km/h 71 % 0.0 mm
15:23 15.1 °C 9.9 °C 1030.7 hPa ENE 3.7 km/h 3.7 km/h 71 % 0.0 mm
15:28 15.1 °C 9.7 °C 1030.7 hPa ENE 5.6 km/h 5.6 km/h 70 % 0.0 mm
15:33 14.9 °C 9.5 °C 1030.7 hPa NNE 9.3 km/h 9.3 km/h 70 % 0.0 mm
15:38 14.9 °C 9.5 °C 1030.7 hPa North 7.4 km/h 7.4 km/h 70 % 0.0 mm
15:43 14.9 °C 9.5 °C 1030.7 hPa NNE 7.4 km/h 7.4 km/h 70 % 0.0 mm
15:48 15.0 °C 9.6 °C 1030.7 hPa NNE 5.3 km/h 5.3 km/h 70 % 0.0 mm
15:53 15.1 °C 9.7 °C 1030.7 hPa NE 7.4 km/h 7.4 km/h 70 % 0.0 mm
15:58 15.1 °C 9.7 °C 1030.7 hPa NNE 4.2 km/h 4.2 km/h 70 % 0.0 mm
16:03 15.1 °C 9.7 °C 1030.7 hPa NNE 6.1 km/h 6.1 km/h 70 % 0.0 mm
16:13 15.2 °C 9.8 °C 1030.7 hPa ENE 3.7 km/h 3.7 km/h 70 % 0.0 mm
16:18 15.3 °C 9.7 °C 1030.7 hPa NNE 6.1 km/h 6.1 km/h 69 % 0.0 mm
16:23 15.3 °C 9.7 °C 1030.7 hPa NNE 2.6 km/h 2.6 km/h 69 % 0.0 mm
16:28 15.3 °C 9.7 °C 1030.7 hPa ENE 4.7 km/h 4.7 km/h 69 % 0.0 mm
16:33 15.2 °C 9.6 °C 1030.7 hPa ENE 3.7 km/h 3.7 km/h 69 % 0.0 mm
16:38 15.2 °C 9.6 °C 1030.7 hPa NW 5.6 km/h 5.6 km/h 69 % 0.0 mm
16:43 15.2 °C 9.6 °C 1030.7 hPa NNE 7.4 km/h 7.4 km/h 69 % 0.0 mm
16:48 15.2 °C 9.6 °C 1030.7 hPa NNW 1.9 km/h 1.9 km/h 69 % 0.0 mm
16:53 15.3 °C 9.7 °C 1030.7 hPa West 3.7 km/h 3.7 km/h 69 % 0.0 mm
16:58 15.3 °C 9.7 °C 1030.7 hPa NNW 3.7 km/h 3.7 km/h 69 % 0.0 mm
17:03 15.4 °C 9.7 °C 1030.7 hPa ENE 1.9 km/h   69 % 0.0 mm
17:08 15.3 °C 9.7 °C 1030.7 hPa ENE 1.9 km/h 1.9 km/h 69 % 0.0 mm
17:13 15.8 °C 10.3 °C 1030.7 hPa WSW 3.9 km/h 3.9 km/h 70 % 0.0 mm
17:23 15.7 °C 10.2 °C 1030.7 hPa SW 9.3 km/h 9.3 km/h 70 % 0.0 mm
17:28 15.6 °C 10.2 °C 1030.7 hPa SW 9.7 km/h 9.7 km/h 70 % 0.0 mm
17:33 15.5 °C 10.1 °C 1030.7 hPa WSW 11.1 km/h 11.1 km/h 70 % 0.0 mm
17:38 15.2 °C 9.8 °C 1030.7 hPa SW 9.3 km/h 9.3 km/h 70 % 0.0 mm
17:43 15.1 °C 9.9 °C 1030.7 hPa SW 11.1 km/h 11.1 km/h 71 % 0.0 mm
17:48 15.0 °C 9.8 °C 1030.7 hPa WSW 9.3 km/h 9.3 km/h 71 % 0.0 mm
17:53 14.7 °C 9.7 °C 1030.7 hPa SW 9.3 km/h 9.3 km/h 72 % 0.0 mm
17:58 14.5 °C 9.5 °C 1030.7 hPa SW 5.6 km/h 5.6 km/h 72 % 0.0 mm
18:03 14.3 °C 9.5 °C 1030.7 hPa WSW 3.7 km/h 3.7 km/h 73 % 0.0 mm
18:08 14.2 °C 9.4 °C 1030.7 hPa WSW 4.2 km/h 4.2 km/h 73 % 0.0 mm
18:13 14.0 °C 9.4 °C 1030.7 hPa WSW 3.7 km/h   74 % 0.0 mm
18:18 13.9 °C 9.3 °C 1030.7 hPa SW 3.9 km/h 3.9 km/h 74 % 0.0 mm
18:23 13.8 °C 9.4 °C 1032.1 hPa Calm     75 % 0.0 mm
18:28 13.5 °C 9.2 °C 1032.1 hPa Calm     75 % 0.0 mm
18:33 13.4 °C 9.1 °C 1032.1 hPa NW 1.9 km/h   75 % 0.0 mm
18:38 13.3 °C 9.2 °C 1032.1 hPa SW 3.7 km/h 3.7 km/h 76 % 0.0 mm
18:43 13.2 °C 9.1 °C 1032.1 hPa WSW 3.9 km/h 3.9 km/h 76 % 0.0 mm
18:48 13.1 °C 9.2 °C 1032.1 hPa WSW 5.6 km/h 5.6 km/h 77 % 0.0 mm
18:53 13.0 °C 9.1 °C 1032.1 hPa SW 3.7 km/h 3.7 km/h 77 % 0.0 mm
18:58 12.9 °C 8.9 °C 1032.1 hPa SW 3.7 km/h 3.7 km/h 77 % 0.0 mm
19:03 12.8 °C 9.1 °C 1032.1 hPa Calm     78 % 0.0 mm
19:08 12.6 °C 8.9 °C 1032.1 hPa Calm     78 % 0.0 mm
19:13 12.5 °C 8.8 °C 1032.1 hPa NNE 2.3 km/h 2.3 km/h 78 % 0.0 mm
19:18 12.4 °C 8.7 °C 1032.1 hPa NE 3.7 km/h 3.7 km/h 78 % 0.0 mm
19:23 12.2 °C 8.3 °C 1032.1 hPa NE 3.7 km/h 3.7 km/h 77 % 0.0 mm
19:28 12.0 °C 7.9 °C 1032.1 hPa NNE 3.7 km/h 3.7 km/h 76 % 0.0 mm
19:33 11.9 °C 7.8 °C 1032.1 hPa WNW 1.9 km/h 1.9 km/h 76 % 0.0 mm
19:38 11.7 °C 7.6 °C 1032.1 hPa NNE 3.7 km/h   76 % 0.0 mm
19:43 11.6 °C 7.5 °C 1032.1 hPa NNE 4.2 km/h 4.2 km/h 76 % 0.0 mm
19:48 11.5 °C 7.4 °C 1032.1 hPa NE 3.7 km/h 3.9 km/h 76 % 0.0 mm
19:53 11.5 °C 7.4 °C 1032.1 hPa WNW 3.7 km/h 3.7 km/h 76 % 0.0 mm
19:58 11.4 °C 7.3 °C 1032.1 hPa NW 4.2 km/h 4.2 km/h 76 % 0.0 mm
20:03 11.2 °C 7.3 °C 1032.1 hPa West 1.9 km/h   77 % 0.0 mm
20:08 11.1 °C 7.2 °C 1032.1 hPa NE 1.9 km/h   77 % 0.0 mm
20:13 11.0 °C 7.1 °C 1032.1 hPa Calm     77 % 0.0 mm
20:18 10.9 °C 7.0 °C 1032.1 hPa Calm     77 % 0.0 mm
20:23 10.8 °C 6.9 °C 1032.1 hPa Calm     77 % 0.0 mm
20:28 10.6 °C 6.7 °C 1032.1 hPa NE 1.9 km/h   77 % 0.0 mm
20:33 10.5 °C 6.6 °C 1032.1 hPa Calm     77 % 0.0 mm
20:38 10.4 °C 6.7 °C 1032.1 hPa Calm     78 % 0.0 mm
20:43 10.3 °C 6.6 °C 1032.1 hPa Calm     78 % 0.0 mm
20:48 10.2 °C 6.6 °C 1032.1 hPa Calm     78 % 0.0 mm
20:53 10.2 °C 6.6 °C 1030.7 hPa Calm     78 % 0.0 mm
20:58 10.1 °C 6.4 °C 1030.7 hPa Calm     78 % 0.0 mm
21:03 10.0 °C 6.3 °C 1030.7 hPa Calm     78 % 0.0 mm
21:08 9.9 °C 6.4 °C 1030.7 hPa NNE 3.7 km/h 3.7 km/h 79 % 0.0 mm
21:13 9.9 °C 6.4 °C 1030.7 hPa NNE 1.9 km/h 1.9 km/h 79 % 0.0 mm
21:18 9.9 °C 6.4 °C 1030.7 hPa Calm     79 % 0.0 mm
21:23 9.8 °C 6.3 °C 1030.7 hPa Calm     79 % 0.0 mm
21:28 9.8 °C 6.3 °C 1030.7 hPa Calm     79 % 0.0 mm
21:33 9.7 °C 6.2 °C 1030.7 hPa Calm     79 % 0.0 mm
21:38 9.6 °C 6.1 °C 1030.7 hPa Calm     79 % 0.0 mm
21:43 9.5 °C 6.1 °C 1030.7 hPa Calm     79 % 0.0 mm
21:48 9.5 °C 6.1 °C 1030.7 hPa NNE 3.7 km/h 3.7 km/h 79 % 0.0 mm
21:53 9.5 °C 6.1 °C 1032.1 hPa NNW 1.9 km/h 1.9 km/h 79 % 0.0 mm
21:58 9.4 °C 5.9 °C 1032.1 hPa NNW 1.9 km/h   79 % 0.0 mm
22:03 9.4 °C 5.9 °C 1032.1 hPa NNE 3.5 km/h 3.5 km/h 79 % 0.0 mm
22:08 9.3 °C 5.8 °C 1030.7 hPa NNW 1.9 km/h 1.9 km/h 79 % 0.0 mm
22:13 9.3 °C 5.8 °C 1030.7 hPa NW 1.9 km/h 1.9 km/h 79 % 0.0 mm
22:18 9.2 °C 5.7 °C 1030.7 hPa NNW 1.9 km/h   79 % 0.0 mm
22:23 9.2 °C 5.7 °C 1030.7 hPa WNW 1.9 km/h 1.9 km/h 79 % 0.0 mm
22:28 9.1 °C 5.7 °C 1030.7 hPa North 2.6 km/h 2.6 km/h 79 % 0.0 mm
22:33 9.0 °C 5.6 °C 1030.7 hPa West 1.9 km/h 1.9 km/h 79 % 0.0 mm
22:38 8.9 °C 5.6 °C 1032.1 hPa WNW 1.9 km/h   80 % 0.0 mm
22:43 8.8 °C 5.3 °C 1032.1 hPa WNW 3.7 km/h 3.7 km/h 79 % 0.0 mm
22:48 8.7 °C 5.4 °C 1032.1 hPa Calm     80 % 0.0 mm
22:53 8.6 °C 5.3 °C 1032.1 hPa Calm     80 % 0.0 mm
22:58 8.6 °C 5.3 °C 1032.1 hPa NW 1.9 km/h   80 % 0.0 mm
Meteo Sesrovires
Elogis d' Weather Underground - 3.25 mb

Guio original per  Jim McMurry - jmcmurry@mwt.net Adaptat per a la plantilla per  Wim van der Kuil - Leuven-Template.eu

Trobareu la nostra informacio del temps tambe a:

Weather Underground

AWEKAS